sensor_id;sensor_type;location;lat;lon;timestamp;temperature;humidity
1351;DHT22;669;50.206;9.998;2023-03-24T00:01:16;9.70;99.10
1351;DHT22;669;50.206;9.998;2023-03-24T00:03:44;9.60;99.20
1351;DHT22;669;50.206;9.998;2023-03-24T00:06:15;9.60;99.30
1351;DHT22;669;50.206;9.998;2023-03-24T00:08:44;9.60;99.40
1351;DHT22;669;50.206;9.998;2023-03-24T00:11:14;9.60;99.50
1351;DHT22;669;50.206;9.998;2023-03-24T00:13:44;9.60;99.50
1351;DHT22;669;50.206;9.998;2023-03-24T00:16:15;9.60;99.50
1351;DHT22;669;50.206;9.998;2023-03-24T00:18:45;9.60;99.70
1351;DHT22;669;50.206;9.998;2023-03-24T00:21:22;9.60;99.80
1351;DHT22;669;50.206;9.998;2023-03-24T00:23:52;9.60;99.90
1351;DHT22;669;50.206;9.998;2023-03-24T00:26:22;9.60;99.80
1351;DHT22;669;50.206;9.998;2023-03-24T00:28:51;9.60;99.50
1351;DHT22;669;50.206;9.998;2023-03-24T00:31:19;9.60;99.80
1351;DHT22;669;50.206;9.998;2023-03-24T00:33:47;9.70;99.90
1351;DHT22;669;50.206;9.998;2023-03-24T00:36:18;9.60;99.90
1351;DHT22;669;50.206;9.998;2023-03-24T00:38:48;9.70;99.90
1351;DHT22;669;50.206;9.998;2023-03-24T00:41:16;9.70;99.90
1351;DHT22;669;50.206;9.998;2023-03-24T00:43:46;9.70;99.90
1351;DHT22;669;50.206;9.998;2023-03-24T00:46:15;9.70;99.90
1351;DHT22;669;50.206;9.998;2023-03-24T00:48:54;9.80;99.90
1351;DHT22;669;50.206;9.998;2023-03-24T00:51:29;9.80;99.90
1351;DHT22;669;50.206;9.998;2023-03-24T00:53:59;9.90;99.90
1351;DHT22;669;50.206;9.998;2023-03-24T00:56:28;10.00;99.50
1351;DHT22;669;50.206;9.998;2023-03-24T00:58:57;10.10;99.40
1351;DHT22;669;50.206;9.998;2023-03-24T01:01:30;10.20;99.30
1351;DHT22;669;50.206;9.998;2023-03-24T01:04:01;10.20;99.30
1351;DHT22;669;50.206;9.998;2023-03-24T01:06:32;10.30;99.30
1351;DHT22;669;50.206;9.998;2023-03-24T01:09:04;10.30;99.20
1351;DHT22;669;50.206;9.998;2023-03-24T01:11:35;10.40;99.30
1351;DHT22;669;50.206;9.998;2023-03-24T01:14:04;10.40;99.40
1351;DHT22;669;50.206;9.998;2023-03-24T01:16:32;10.40;99.40
1351;DHT22;669;50.206;9.998;2023-03-24T01:19:02;10.40;99.70
1351;DHT22;669;50.206;9.998;2023-03-24T01:21:30;10.40;99.40
1351;DHT22;669;50.206;9.998;2023-03-24T01:23:57;10.40;99.40
1351;DHT22;669;50.206;9.998;2023-03-24T01:26:27;10.40;99.40
1351;DHT22;669;50.206;9.998;2023-03-24T01:28:55;10.30;99.10
1351;DHT22;669;50.206;9.998;2023-03-24T01:31:22;10.20;99.20
1351;DHT22;669;50.206;9.998;2023-03-24T01:33:50;10.20;99.30
1351;DHT22;669;50.206;9.998;2023-03-24T01:36:18;10.20;99.50
1351;DHT22;669;50.206;9.998;2023-03-24T01:38:46;10.20;99.60
1351;DHT22;669;50.206;9.998;2023-03-24T01:41:14;10.20;99.60
1351;DHT22;669;50.206;9.998;2023-03-24T01:43:44;10.20;99.70
1351;DHT22;669;50.206;9.998;2023-03-24T01:46:15;10.10;99.70
1351;DHT22;669;50.206;9.998;2023-03-24T01:48:48;10.10;99.80
1351;DHT22;669;50.206;9.998;2023-03-24T01:51:20;10.10;99.90
1351;DHT22;669;50.206;9.998;2023-03-24T01:53:52;10.10;99.90
1351;DHT22;669;50.206;9.998;2023-03-24T01:56:21;10.10;99.90
1351;DHT22;669;50.206;9.998;2023-03-24T01:58:54;10.00;99.70
1351;DHT22;669;50.206;9.998;2023-03-24T02:01:23;10.00;99.70
1351;DHT22;669;50.206;9.998;2023-03-24T02:03:56;9.90;99.90
1351;DHT22;669;50.206;9.998;2023-03-24T02:06:24;9.90;99.90
1351;DHT22;669;50.206;9.998;2023-03-24T02:08:54;9.90;99.90
1351;DHT22;669;50.206;9.998;2023-03-24T02:11:25;9.90;99.90
1351;DHT22;669;50.206;9.998;2023-03-24T02:13:55;9.90;99.90
1351;DHT22;669;50.206;9.998;2023-03-24T02:16:39;9.90;99.90
1351;DHT22;669;50.206;9.998;2023-03-24T02:22:47;9.90;99.90
1351;DHT22;669;50.206;9.998;2023-03-24T02:25:36;9.90;99.90
1351;DHT22;669;50.206;9.998;2023-03-24T02:28:33;9.90;99.90
1351;DHT22;669;50.206;9.998;2023-03-24T02:31:18;9.90;99.90
1351;DHT22;669;50.206;9.998;2023-03-24T02:34:15;9.90;99.90
1351;DHT22;669;50.206;9.998;2023-03-24T02:37:16;9.80;99.90
1351;DHT22;669;50.206;9.998;2023-03-24T02:40:11;9.80;99.90
1351;DHT22;669;50.206;9.998;2023-03-24T02:42:52;9.70;99.90
1351;DHT22;669;50.206;9.998;2023-03-24T02:45:28;9.70;99.90
1351;DHT22;669;50.206;9.998;2023-03-24T02:48:10;9.70;99.90
1351;DHT22;669;50.206;9.998;2023-03-24T02:50:49;9.70;99.90
1351;DHT22;669;50.206;9.998;2023-03-24T02:53:23;9.70;99.90
1351;DHT22;669;50.206;9.998;2023-03-24T02:55:58;9.70;99.90
1351;DHT22;669;50.206;9.998;2023-03-24T02:58:31;9.70;99.90
1351;DHT22;669;50.206;9.998;2023-03-24T03:01:03;9.60;99.90
1351;DHT22;669;50.206;9.998;2023-03-24T03:03:37;9.60;99.90
1351;DHT22;669;50.206;9.998;2023-03-24T03:06:12;9.60;99.90
1351;DHT22;669;50.206;9.998;2023-03-24T03:08:42;9.70;99.90
1351;DHT22;669;50.206;9.998;2023-03-24T03:11:14;9.60;99.90
1351;DHT22;669;50.206;9.998;2023-03-24T03:13:47;9.60;99.90
1351;DHT22;669;50.206;9.998;2023-03-24T03:16:20;9.60;99.90
1351;DHT22;669;50.206;9.998;2023-03-24T03:18:54;9.60;99.90
1351;DHT22;669;50.206;9.998;2023-03-24T03:21:26;9.60;99.90
1351;DHT22;669;50.206;9.998;2023-03-24T03:24:01;9.60;99.90
1351;DHT22;669;50.206;9.998;2023-03-24T03:26:32;9.50;99.90
1351;DHT22;669;50.206;9.998;2023-03-24T03:29:04;9.50;99.90
1351;DHT22;669;50.206;9.998;2023-03-24T03:31:35;9.40;99.90
1351;DHT22;669;50.206;9.998;2023-03-24T03:34:10;9.40;99.90
1351;DHT22;669;50.206;9.998;2023-03-24T03:36:45;9.50;99.90
1351;DHT22;669;50.206;9.998;2023-03-24T03:39:18;9.40;99.90
1351;DHT22;669;50.206;9.998;2023-03-24T03:41:51;9.40;99.90
1351;DHT22;669;50.206;9.998;2023-03-24T03:44:19;9.40;99.90
1351;DHT22;669;50.206;9.998;2023-03-24T03:46:47;9.40;99.90
1351;DHT22;669;50.206;9.998;2023-03-24T03:49:15;9.30;99.90
1351;DHT22;669;50.206;9.998;2023-03-24T03:51:43;9.30;99.90
1351;DHT22;669;50.206;9.998;2023-03-24T03:54:12;9.30;99.90
1351;DHT22;669;50.206;9.998;2023-03-24T03:56:43;9.30;99.90
1351;DHT22;669;50.206;9.998;2023-03-24T03:59:27;9.40;99.90
1351;DHT22;669;50.206;9.998;2023-03-24T04:01:55;9.40;99.90
1351;DHT22;669;50.206;9.998;2023-03-24T04:04:47;9.40;99.90
1351;DHT22;669;50.206;9.998;2023-03-24T04:07:36;9.30;99.90
1351;DHT22;669;50.206;9.998;2023-03-24T04:10:14;9.30;99.90
1351;DHT22;669;50.206;9.998;2023-03-24T04:12:58;9.30;99.90
1351;DHT22;669;50.206;9.998;2023-03-24T04:15:35;9.30;99.90
1351;DHT22;669;50.206;9.998;2023-03-24T04:21:09;9.30;99.90
1351;DHT22;669;50.206;9.998;2023-03-24T04:23:46;9.30;99.90
1351;DHT22;669;50.206;9.998;2023-03-24T04:26:24;9.30;99.90
1351;DHT22;669;50.206;9.998;2023-03-24T04:29:02;9.30;99.90
1351;DHT22;669;50.206;9.998;2023-03-24T04:31:34;9.30;99.90
1351;DHT22;669;50.206;9.998;2023-03-24T04:34:10;9.30;99.90
1351;DHT22;669;50.206;9.998;2023-03-24T04:36:43;9.30;99.90
1351;DHT22;669;50.206;9.998;2023-03-24T04:39:19;9.30;99.90
1351;DHT22;669;50.206;9.998;2023-03-24T04:41:51;9.30;99.90
1351;DHT22;669;50.206;9.998;2023-03-24T04:44:20;9.30;99.90
1351;DHT22;669;50.206;9.998;2023-03-24T04:46:52;9.20;99.90
1351;DHT22;669;50.206;9.998;2023-03-24T04:49:22;9.20;99.90
1351;DHT22;669;50.206;9.998;2023-03-24T04:51:51;9.20;99.90
1351;DHT22;669;50.206;9.998;2023-03-24T04:54:19;9.20;99.90
1351;DHT22;669;50.206;9.998;2023-03-24T04:56:48;9.20;99.90
1351;DHT22;669;50.206;9.998;2023-03-24T04:59:17;9.20;99.90
1351;DHT22;669;50.206;9.998;2023-03-24T05:01:45;9.10;99.90
1351;DHT22;669;50.206;9.998;2023-03-24T05:04:17;9.20;99.90
1351;DHT22;669;50.206;9.998;2023-03-24T05:06:45;9.10;99.90
1351;DHT22;669;50.206;9.998;2023-03-24T05:09:15;9.10;99.90
1351;DHT22;669;50.206;9.998;2023-03-24T05:11:44;9.20;99.90
1351;DHT22;669;50.206;9.998;2023-03-24T05:14:12;9.20;99.90
1351;DHT22;669;50.206;9.998;2023-03-24T05:16:40;9.20;99.90
1351;DHT22;669;50.206;9.998;2023-03-24T05:19:09;9.30;99.90
1351;DHT22;669;50.206;9.998;2023-03-24T05:21:38;9.30;99.90
1351;DHT22;669;50.206;9.998;2023-03-24T05:24:07;9.30;99.90
1351;DHT22;669;50.206;9.998;2023-03-24T05:26:35;9.30;99.90
1351;DHT22;669;50.206;9.998;2023-03-24T05:29:02;9.30;99.90
1351;DHT22;669;50.206;9.998;2023-03-24T05:31:30;9.30;99.90
1351;DHT22;669;50.206;9.998;2023-03-24T05:33:58;9.40;99.90
1351;DHT22;669;50.206;9.998;2023-03-24T05:36:26;9.40;99.90
1351;DHT22;669;50.206;9.998;2023-03-24T05:38:56;9.40;99.90
1351;DHT22;669;50.206;9.998;2023-03-24T05:41:23;9.50;99.90
1351;DHT22;669;50.206;9.998;2023-03-24T05:43:51;9.50;99.90
1351;DHT22;669;50.206;9.998;2023-03-24T05:46:19;9.50;99.90
1351;DHT22;669;50.206;9.998;2023-03-24T05:48:50;9.60;99.90
1351;DHT22;669;50.206;9.998;2023-03-24T05:51:17;9.60;99.90
1351;DHT22;669;50.206;9.998;2023-03-24T05:53:46;9.60;99.90
1351;DHT22;669;50.206;9.998;2023-03-24T05:56:15;9.60;99.90
1351;DHT22;669;50.206;9.998;2023-03-24T05:58:43;9.60;99.90
1351;DHT22;669;50.206;9.998;2023-03-24T06:01:11;9.70;99.90
1351;DHT22;669;50.206;9.998;2023-03-24T06:03:39;9.70;99.90
1351;DHT22;669;50.206;9.998;2023-03-24T06:06:08;9.70;99.90
1351;DHT22;669;50.206;9.998;2023-03-24T06:08:40;9.80;99.90
1351;DHT22;669;50.206;9.998;2023-03-24T06:11:10;9.80;99.90
1351;DHT22;669;50.206;9.998;2023-03-24T06:13:40;9.90;99.90
1351;DHT22;669;50.206;9.998;2023-03-24T06:16:08;10.00;99.90
1351;DHT22;669;50.206;9.998;2023-03-24T06:18:36;10.00;99.90
1351;DHT22;669;50.206;9.998;2023-03-24T06:21:08;10.00;99.90
1351;DHT22;669;50.206;9.998;2023-03-24T06:23:36;10.10;99.90
1351;DHT22;669;50.206;9.998;2023-03-24T06:26:08;10.10;99.90
1351;DHT22;669;50.206;9.998;2023-03-24T06:28:37;10.20;99.90
1351;DHT22;669;50.206;9.998;2023-03-24T06:31:07;10.30;99.90
1351;DHT22;669;50.206;9.998;2023-03-24T06:33:44;10.30;99.90
1351;DHT22;669;50.206;9.998;2023-03-24T06:36:12;10.30;99.90
1351;DHT22;669;50.206;9.998;2023-03-24T06:38:40;10.40;99.90
1351;DHT22;669;50.206;9.998;2023-03-24T06:41:09;10.40;99.90
1351;DHT22;669;50.206;9.998;2023-03-24T06:43:37;10.40;99.90
1351;DHT22;669;50.206;9.998;2023-03-24T06:46:07;10.40;99.90
1351;DHT22;669;50.206;9.998;2023-03-24T06:48:35;10.50;99.90
1351;DHT22;669;50.206;9.998;2023-03-24T06:51:04;10.50;99.90
1351;DHT22;669;50.206;9.998;2023-03-24T06:53:32;10.50;99.90
1351;DHT22;669;50.206;9.998;2023-03-24T06:56:00;10.50;99.90
1351;DHT22;669;50.206;9.998;2023-03-24T06:58:28;10.50;99.90
1351;DHT22;669;50.206;9.998;2023-03-24T07:01:00;10.60;99.90
1351;DHT22;669;50.206;9.998;2023-03-24T07:03:29;10.70;99.90
1351;DHT22;669;50.206;9.998;2023-03-24T07:05:58;10.70;99.90
1351;DHT22;669;50.206;9.998;2023-03-24T07:08:26;10.80;99.90
1351;DHT22;669;50.206;9.998;2023-03-24T07:11:04;10.90;99.90
1351;DHT22;669;50.206;9.998;2023-03-24T07:13:34;11.00;99.90
1351;DHT22;669;50.206;9.998;2023-03-24T07:16:02;11.10;99.90
1351;DHT22;669;50.206;9.998;2023-03-24T07:18:32;11.20;99.90
1351;DHT22;669;50.206;9.998;2023-03-24T07:21:00;11.20;99.90
1351;DHT22;669;50.206;9.998;2023-03-24T07:23:28;11.20;99.90
1351;DHT22;669;50.206;9.998;2023-03-24T07:25:56;11.20;99.90
1351;DHT22;669;50.206;9.998;2023-03-24T07:28:24;11.30;99.90
1351;DHT22;669;50.206;9.998;2023-03-24T07:30:52;11.30;99.90
1351;DHT22;669;50.206;9.998;2023-03-24T07:33:21;11.50;99.90
1351;DHT22;669;50.206;9.998;2023-03-24T07:35:54;11.60;99.90
1351;DHT22;669;50.206;9.998;2023-03-24T07:38:23;11.70;99.90
1351;DHT22;669;50.206;9.998;2023-03-24T07:40:51;11.80;99.70
1351;DHT22;669;50.206;9.998;2023-03-24T07:43:19;11.80;99.60
1351;DHT22;669;50.206;9.998;2023-03-24T07:45:47;11.80;99.40
1351;DHT22;669;50.206;9.998;2023-03-24T07:48:15;11.90;99.90
1351;DHT22;669;50.206;9.998;2023-03-24T07:50:43;11.90;99.90
1351;DHT22;669;50.206;9.998;2023-03-24T07:53:13;11.90;99.60
1351;DHT22;669;50.206;9.998;2023-03-24T07:55:45;11.90;99.50
1351;DHT22;669;50.206;9.998;2023-03-24T07:58:14;12.00;99.70
1351;DHT22;669;50.206;9.998;2023-03-24T08:00:42;12.00;98.70
1351;DHT22;669;50.206;9.998;2023-03-24T08:03:11;12.10;98.80
1351;DHT22;669;50.206;9.998;2023-03-24T08:05:42;12.10;98.80
1351;DHT22;669;50.206;9.998;2023-03-24T08:08:10;12.30;98.50
1351;DHT22;669;50.206;9.998;2023-03-24T08:10:39;12.30;97.90
1351;DHT22;669;50.206;9.998;2023-03-24T08:13:08;12.40;97.30
1351;DHT22;669;50.206;9.998;2023-03-24T08:15:36;12.50;97.60
1351;DHT22;669;50.206;9.998;2023-03-24T08:18:04;12.50;96.90
1351;DHT22;669;50.206;9.998;2023-03-24T08:20:32;12.50;97.10
1351;DHT22;669;50.206;9.998;2023-03-24T08:23:00;12.40;97.30
1351;DHT22;669;50.206;9.998;2023-03-24T08:25:30;12.30;97.50
1351;DHT22;669;50.206;9.998;2023-03-24T08:28:00;12.30;97.10
1351;DHT22;669;50.206;9.998;2023-03-24T08:30:28;12.30;97.60
1351;DHT22;669;50.206;9.998;2023-03-24T08:32:58;12.20;97.50
1351;DHT22;669;50.206;9.998;2023-03-24T08:35:28;12.20;97.60
1351;DHT22;669;50.206;9.998;2023-03-24T08:37:57;12.10;97.70
1351;DHT22;669;50.206;9.998;2023-03-24T08:40:28;12.10;97.70
1351;DHT22;669;50.206;9.998;2023-03-24T08:43:00;12.00;97.90
1351;DHT22;669;50.206;9.998;2023-03-24T08:45:30;12.00;97.90
1351;DHT22;669;50.206;9.998;2023-03-24T08:48:01;12.00;98.10
1351;DHT22;669;50.206;9.998;2023-03-24T08:50:32;12.00;98.50
1351;DHT22;669;50.206;9.998;2023-03-24T08:53:01;12.00;98.70
1351;DHT22;669;50.206;9.998;2023-03-24T08:55:30;12.00;98.80
1351;DHT22;669;50.206;9.998;2023-03-24T08:58:00;12.00;98.60
1351;DHT22;669;50.206;9.998;2023-03-24T09:00:28;12.00;98.90
1351;DHT22;669;50.206;9.998;2023-03-24T09:02:56;12.00;98.90
1351;DHT22;669;50.206;9.998;2023-03-24T09:05:27;11.90;99.00
1351;DHT22;669;50.206;9.998;2023-03-24T09:08:10;11.90;99.30
1351;DHT22;669;50.206;9.998;2023-03-24T09:10:38;11.90;99.40
1351;DHT22;669;50.206;9.998;2023-03-24T09:13:08;11.80;99.90
1351;DHT22;669;50.206;9.998;2023-03-24T09:15:36;11.80;99.70
1351;DHT22;669;50.206;9.998;2023-03-24T09:18:04;11.80;99.90
1351;DHT22;669;50.206;9.998;2023-03-24T09:20:33;11.90;99.60
1351;DHT22;669;50.206;9.998;2023-03-24T09:23:01;11.90;99.40
1351;DHT22;669;50.206;9.998;2023-03-24T09:25:29;12.00;99.00
1351;DHT22;669;50.206;9.998;2023-03-24T09:27:57;12.10;99.10
1351;DHT22;669;50.206;9.998;2023-03-24T09:30:26;12.10;99.30
1351;DHT22;669;50.206;9.998;2023-03-24T09:32:56;12.10;98.70
1351;DHT22;669;50.206;9.998;2023-03-24T09:35:25;12.10;99.00
1351;DHT22;669;50.206;9.998;2023-03-24T09:37:53;12.20;98.20
1351;DHT22;669;50.206;9.998;2023-03-24T09:40:24;12.20;98.20
1351;DHT22;669;50.206;9.998;2023-03-24T09:42:55;12.20;98.10
1351;DHT22;669;50.206;9.998;2023-03-24T09:45:28;12.20;97.60
1351;DHT22;669;50.206;9.998;2023-03-24T09:48:01;12.20;98.20
1351;DHT22;669;50.206;9.998;2023-03-24T09:50:36;12.30;97.70
1351;DHT22;669;50.206;9.998;2023-03-24T09:53:08;12.30;97.40
1351;DHT22;669;50.206;9.998;2023-03-24T09:55:40;12.30;97.20
1351;DHT22;669;50.206;9.998;2023-03-24T09:58:10;12.30;97.60
1351;DHT22;669;50.206;9.998;2023-03-24T10:00:41;12.30;98.40
1351;DHT22;669;50.206;9.998;2023-03-24T10:03:17;12.30;98.30
1351;DHT22;669;50.206;9.998;2023-03-24T10:05:49;12.30;98.50
1351;DHT22;669;50.206;9.998;2023-03-24T10:08:25;12.20;99.30
1351;DHT22;669;50.206;9.998;2023-03-24T10:11:01;12.10;99.80
1351;DHT22;669;50.206;9.998;2023-03-24T10:13:39;12.20;99.90
1351;DHT22;669;50.206;9.998;2023-03-24T10:16:17;12.40;99.90
1351;DHT22;669;50.206;9.998;2023-03-24T10:18:52;12.60;99.00
1351;DHT22;669;50.206;9.998;2023-03-24T10:21:25;12.60;98.90
1351;DHT22;669;50.206;9.998;2023-03-24T10:23:58;12.70;98.70
1351;DHT22;669;50.206;9.998;2023-03-24T10:26:38;12.80;99.10
1351;DHT22;669;50.206;9.998;2023-03-24T10:29:21;12.90;99.40
1351;DHT22;669;50.206;9.998;2023-03-24T10:31:56;12.90;98.60
1351;DHT22;669;50.206;9.998;2023-03-24T10:34:27;12.90;97.10
1351;DHT22;669;50.206;9.998;2023-03-24T10:36:57;12.90;97.80
1351;DHT22;669;50.206;9.998;2023-03-24T10:39:27;12.80;97.90
1351;DHT22;669;50.206;9.998;2023-03-24T10:42:14;12.70;98.40
1351;DHT22;669;50.206;9.998;2023-03-24T10:44:45;12.60;99.10
1351;DHT22;669;50.206;9.998;2023-03-24T10:47:18;12.60;99.60
1351;DHT22;669;50.206;9.998;2023-03-24T10:49:52;12.50;99.50
1351;DHT22;669;50.206;9.998;2023-03-24T10:52:20;12.30;99.90
1351;DHT22;669;50.206;9.998;2023-03-24T10:54:54;11.90;95.80
1351;DHT22;669;50.206;9.998;2023-03-24T10:57:24;11.30;96.90
1351;DHT22;669;50.206;9.998;2023-03-24T10:59:55;11.00;98.00
1351;DHT22;669;50.206;9.998;2023-03-24T11:02:26;10.80;99.30
1351;DHT22;669;50.206;9.998;2023-03-24T11:04:57;10.60;99.70
1351;DHT22;669;50.206;9.998;2023-03-24T11:07:29;10.60;99.90
1351;DHT22;669;50.206;9.998;2023-03-24T11:10:04;10.50;99.90
1351;DHT22;669;50.206;9.998;2023-03-24T11:12:33;10.50;99.90
1351;DHT22;669;50.206;9.998;2023-03-24T11:15:13;10.50;99.90
1351;DHT22;669;50.206;9.998;2023-03-24T11:17:54;10.50;99.90
1351;DHT22;669;50.206;9.998;2023-03-24T11:20:30;10.50;99.90
1351;DHT22;669;50.206;9.998;2023-03-24T11:23:00;10.50;99.90
1351;DHT22;669;50.206;9.998;2023-03-24T11:25:31;10.40;99.90
1351;DHT22;669;50.206;9.998;2023-03-24T11:28:02;10.40;99.90
1351;DHT22;669;50.206;9.998;2023-03-24T11:30:34;10.40;99.90
1351;DHT22;669;50.206;9.998;2023-03-24T11:33:18;10.30;99.90
1351;DHT22;669;50.206;9.998;2023-03-24T11:36:05;10.20;99.90
1351;DHT22;669;50.206;9.998;2023-03-24T11:38:35;10.00;99.50
1351;DHT22;669;50.206;9.998;2023-03-24T11:41:03;10.00;99.70
1351;DHT22;669;50.206;9.998;2023-03-24T11:43:31;9.90;99.90
1351;DHT22;669;50.206;9.998;2023-03-24T11:46:03;9.90;99.90
1351;DHT22;669;50.206;9.998;2023-03-24T11:48:38;9.80;99.90
1351;DHT22;669;50.206;9.998;2023-03-24T11:51:12;10.00;99.90
1351;DHT22;669;50.206;9.998;2023-03-24T11:53:46;10.10;99.90
1351;DHT22;669;50.206;9.998;2023-03-24T11:56:19;10.30;99.90
1351;DHT22;669;50.206;9.998;2023-03-24T11:58:55;10.50;99.90
1351;DHT22;669;50.206;9.998;2023-03-24T12:01:27;10.70;99.90
1351;DHT22;669;50.206;9.998;2023-03-24T12:04:12;10.80;99.90
1351;DHT22;669;50.206;9.998;2023-03-24T12:06:55;10.90;98.50
1351;DHT22;669;50.206;9.998;2023-03-24T12:09:29;10.80;97.80
1351;DHT22;669;50.206;9.998;2023-03-24T12:12:19;10.70;97.40
1351;DHT22;669;50.206;9.998;2023-03-24T12:15:17;10.50;97.30
1351;DHT22;669;50.206;9.998;2023-03-24T12:18:04;10.40;97.20
1351;DHT22;669;50.206;9.998;2023-03-24T12:20:39;10.30;97.70
1351;DHT22;669;50.206;9.998;2023-03-24T12:23:13;10.20;97.10
1351;DHT22;669;50.206;9.998;2023-03-24T12:25:53;10.10;97.50
1351;DHT22;669;50.206;9.998;2023-03-24T12:28:35;10.10;97.70
1351;DHT22;669;50.206;9.998;2023-03-24T12:31:12;10.20;98.30
1351;DHT22;669;50.206;9.998;2023-03-24T12:33:52;10.30;98.40
1351;DHT22;669;50.206;9.998;2023-03-24T12:36:37;10.30;98.30
1351;DHT22;669;50.206;9.998;2023-03-24T12:39:11;10.30;98.50
1351;DHT22;669;50.206;9.998;2023-03-24T12:42:05;10.30;98.60
1351;DHT22;669;50.206;9.998;2023-03-24T12:50:36;10.40;99.50
1351;DHT22;669;50.206;9.998;2023-03-24T12:53:20;10.70;99.80
1351;DHT22;669;50.206;9.998;2023-03-24T12:55:54;10.80;98.10
1351;DHT22;669;50.206;9.998;2023-03-24T12:58:29;10.90;98.90
1351;DHT22;669;50.206;9.998;2023-03-24T13:01:05;11.00;98.30
1351;DHT22;669;50.206;9.998;2023-03-24T13:03:38;11.10;97.40
1351;DHT22;669;50.206;9.998;2023-03-24T13:06:14;11.10;96.70
1351;DHT22;669;50.206;9.998;2023-03-24T13:08:51;11.30;97.50
1351;DHT22;669;50.206;9.998;2023-03-24T13:11:28;11.40;95.70
1351;DHT22;669;50.206;9.998;2023-03-24T13:14:01;11.50;95.70
1351;DHT22;669;50.206;9.998;2023-03-24T13:16:34;11.50;94.90
1351;DHT22;669;50.206;9.998;2023-03-24T13:19:04;11.40;94.90
1351;DHT22;669;50.206;9.998;2023-03-24T13:21:42;11.40;93.90
1351;DHT22;669;50.206;9.998;2023-03-24T13:24:13;11.50;94.30
1351;DHT22;669;50.206;9.998;2023-03-24T13:26:46;11.50;94.60
1351;DHT22;669;50.206;9.998;2023-03-24T13:29:43;11.50;94.50
1351;DHT22;669;50.206;9.998;2023-03-24T13:32:24;11.40;94.10
1351;DHT22;669;50.206;9.998;2023-03-24T13:34:56;11.40;95.60
1351;DHT22;669;50.206;9.998;2023-03-24T13:37:31;11.60;94.20
1351;DHT22;669;50.206;9.998;2023-03-24T13:40:06;11.90;94.70
1351;DHT22;669;50.206;9.998;2023-03-24T13:42:42;12.00;95.10
1351;DHT22;669;50.206;9.998;2023-03-24T13:45:22;12.20;94.70
1351;DHT22;669;50.206;9.998;2023-03-24T13:48:01;12.30;93.60
1351;DHT22;669;50.206;9.998;2023-03-24T13:50:31;12.50;93.50
1351;DHT22;669;50.206;9.998;2023-03-24T13:53:05;12.80;91.30
1351;DHT22;669;50.206;9.998;2023-03-24T13:55:37;12.90;90.40
1351;DHT22;669;50.206;9.998;2023-03-24T13:58:13;13.10;90.30
1351;DHT22;669;50.206;9.998;2023-03-24T14:01:05;13.10;85.50
1351;DHT22;669;50.206;9.998;2023-03-24T14:03:42;13.10;87.20
1351;DHT22;669;50.206;9.998;2023-03-24T14:06:14;13.20;89.80
1351;DHT22;669;50.206;9.998;2023-03-24T14:08:54;13.20;86.50
1351;DHT22;669;50.206;9.998;2023-03-24T14:11:48;13.30;83.00
1351;DHT22;669;50.206;9.998;2023-03-24T14:14:20;13.30;82.00
1351;DHT22;669;50.206;9.998;2023-03-24T14:16:50;13.30;82.00
1351;DHT22;669;50.206;9.998;2023-03-24T14:19:24;13.30;78.10
1351;DHT22;669;50.206;9.998;2023-03-24T14:21:57;13.30;74.30
1351;DHT22;669;50.206;9.998;2023-03-24T14:24:30;13.10;77.70
1351;DHT22;669;50.206;9.998;2023-03-24T14:27:00;12.90;76.80
1351;DHT22;669;50.206;9.998;2023-03-24T14:29:48;12.90;77.10
1351;DHT22;669;50.206;9.998;2023-03-24T14:32:17;12.80;75.20
1351;DHT22;669;50.206;9.998;2023-03-24T14:34:53;12.70;74.90
1351;DHT22;669;50.206;9.998;2023-03-24T14:37:23;12.80;77.20
1351;DHT22;669;50.206;9.998;2023-03-24T14:39:51;13.00;77.60
1351;DHT22;669;50.206;9.998;2023-03-24T14:42:55;13.10;74.80
1351;DHT22;669;50.206;9.998;2023-03-24T14:45:59;13.10;72.90
1351;DHT22;669;50.206;9.998;2023-03-24T14:48:31;13.30;71.20
1351;DHT22;669;50.206;9.998;2023-03-24T14:51:05;13.40;72.50
1351;DHT22;669;50.206;9.998;2023-03-24T14:53:35;13.60;73.50
1351;DHT22;669;50.206;9.998;2023-03-24T14:56:06;13.80;72.00
1351;DHT22;669;50.206;9.998;2023-03-24T14:58:39;14.00;69.80
1351;DHT22;669;50.206;9.998;2023-03-24T15:01:09;14.20;68.40
1351;DHT22;669;50.206;9.998;2023-03-24T15:03:42;14.10;66.40
1351;DHT22;669;50.206;9.998;2023-03-24T15:06:16;14.20;64.60
1351;DHT22;669;50.206;9.998;2023-03-24T15:08:48;14.20;64.20
1351;DHT22;669;50.206;9.998;2023-03-24T15:11:19;14.10;66.50
1351;DHT22;669;50.206;9.998;2023-03-24T15:13:50;13.90;66.90
1351;DHT22;669;50.206;9.998;2023-03-24T15:16:22;13.90;66.10
1351;DHT22;669;50.206;9.998;2023-03-24T15:18:52;13.90;67.80
1351;DHT22;669;50.206;9.998;2023-03-24T15:21:27;13.90;68.90
1351;DHT22;669;50.206;9.998;2023-03-24T15:23:56;14.00;66.50
1351;DHT22;669;50.206;9.998;2023-03-24T15:26:24;14.10;63.30
1351;DHT22;669;50.206;9.998;2023-03-24T15:28:58;14.10;65.90
1351;DHT22;669;50.206;9.998;2023-03-24T15:31:27;14.10;61.90
1351;DHT22;669;50.206;9.998;2023-03-24T15:34:21;14.10;61.90
1351;DHT22;669;50.206;9.998;2023-03-24T15:36:53;13.90;64.30
1351;DHT22;669;50.206;9.998;2023-03-24T15:39:25;13.70;62.90
1351;DHT22;669;50.206;9.998;2023-03-24T15:41:53;13.60;62.40
1351;DHT22;669;50.206;9.998;2023-03-24T15:44:25;13.40;63.10
1351;DHT22;669;50.206;9.998;2023-03-24T15:46:55;13.10;66.90
1351;DHT22;669;50.206;9.998;2023-03-24T15:49:26;13.00;65.80
1351;DHT22;669;50.206;9.998;2023-03-24T15:51:58;12.80;67.20
1351;DHT22;669;50.206;9.998;2023-03-24T15:54:28;12.70;70.40
1351;DHT22;669;50.206;9.998;2023-03-24T15:57:08;12.60;68.70
1351;DHT22;669;50.206;9.998;2023-03-24T15:59:45;12.60;70.20
1351;DHT22;669;50.206;9.998;2023-03-24T16:02:26;12.70;69.20
1351;DHT22;669;50.206;9.998;2023-03-24T16:04:58;12.60;69.50
1351;DHT22;669;50.206;9.998;2023-03-24T16:07:36;12.50;71.40
1351;DHT22;669;50.206;9.998;2023-03-24T16:10:18;12.40;71.50
1351;DHT22;669;50.206;9.998;2023-03-24T16:12:51;12.30;72.70
1351;DHT22;669;50.206;9.998;2023-03-24T16:15:21;12.20;73.40
1351;DHT22;669;50.206;9.998;2023-03-24T16:17:49;12.10;74.00
1351;DHT22;669;50.206;9.998;2023-03-24T16:20:19;12.10;75.90
1351;DHT22;669;50.206;9.998;2023-03-24T16:22:48;12.00;73.80
1351;DHT22;669;50.206;9.998;2023-03-24T16:25:16;12.10;73.40
1351;DHT22;669;50.206;9.998;2023-03-24T16:27:44;12.10;71.90
1351;DHT22;669;50.206;9.998;2023-03-24T16:30:17;12.20;70.60
1351;DHT22;669;50.206;9.998;2023-03-24T16:32:48;12.30;69.60
1351;DHT22;669;50.206;9.998;2023-03-24T16:35:16;12.30;70.10
1351;DHT22;669;50.206;9.998;2023-03-24T16:37:44;12.40;71.50
1351;DHT22;669;50.206;9.998;2023-03-24T16:40:35;12.40;70.40
1351;DHT22;669;50.206;9.998;2023-03-24T16:43:04;12.50;70.20
1351;DHT22;669;50.206;9.998;2023-03-24T16:45:32;12.60;68.00
1351;DHT22;669;50.206;9.998;2023-03-24T16:48:02;12.50;68.40
1351;DHT22;669;50.206;9.998;2023-03-24T16:50:32;12.50;70.60
1351;DHT22;669;50.206;9.998;2023-03-24T16:53:02;12.40;70.50
1351;DHT22;669;50.206;9.998;2023-03-24T16:55:31;12.40;67.90
1351;DHT22;669;50.206;9.998;2023-03-24T16:57:59;12.30;68.70
1351;DHT22;669;50.206;9.998;2023-03-24T17:00:27;12.20;70.40
1351;DHT22;669;50.206;9.998;2023-03-24T17:02:55;12.10;69.70
1351;DHT22;669;50.206;9.998;2023-03-24T17:05:29;12.10;70.50
1351;DHT22;669;50.206;9.998;2023-03-24T17:07:58;12.00;72.10
1351;DHT22;669;50.206;9.998;2023-03-24T17:10:26;11.90;72.60